createdAt,value
2017-04-12T00:00:11.180Z,972.56
2017-04-12T00:01:19.945Z,972.52
2017-04-12T00:02:29.323Z,972.5
2017-04-12T00:03:38.388Z,972.52
2017-04-12T00:04:48.059Z,972.48
2017-04-12T00:05:57.133Z,972.48
2017-04-12T00:07:05.958Z,972.49
2017-04-12T00:08:14.714Z,972.52
2017-04-12T00:09:23.486Z,972.52
2017-04-12T00:10:32.253Z,972.53
2017-04-12T00:11:41.008Z,972.58
2017-04-12T00:12:49.702Z,972.56
2017-04-12T00:13:58.715Z,972.55
2017-04-12T00:15:08.067Z,972.56
2017-04-12T00:16:17.081Z,972.53
2017-04-12T00:17:26.142Z,972.52
2017-04-12T00:18:35.483Z,972.57
2017-04-12T00:19:44.861Z,972.56
2017-04-12T00:20:53.916Z,972.59
2017-04-12T00:22:02.961Z,972.6
2017-04-12T00:23:12.037Z,972.62
2017-04-12T00:24:20.808Z,972.63
2017-04-12T00:25:30.181Z,972.61
2017-04-12T00:26:39.253Z,972.59
2017-04-12T00:27:48.011Z,972.6
2017-04-12T00:28:57.028Z,972.49
2017-04-12T00:30:06.621Z,972.51
2017-04-12T00:31:15.984Z,972.54
2017-04-12T00:32:24.751Z,972.48
2017-04-12T00:33:34.118Z,972.51
2017-04-12T00:34:43.800Z,972.44
2017-04-12T00:35:52.875Z,972.4
2017-04-12T00:37:01.913Z,972.33
2017-04-12T00:38:10.682Z,972.3
2017-04-12T00:39:19.748Z,972.32
2017-04-12T00:40:28.517Z,972.34
2017-04-12T00:41:37.616Z,972.34
2017-04-12T00:42:46.389Z,972.34
2017-04-12T00:43:55.469Z,972.35
2017-04-12T00:45:04.534Z,972.36
2017-04-12T00:46:13.840Z,972.31
2017-04-12T00:47:22.610Z,972.28
2017-04-12T00:48:31.366Z,972.27
2017-04-12T00:49:40.668Z,972.23
2017-04-12T00:50:49.973Z,972.2
2017-04-12T00:51:59.023Z,972.15
2017-04-12T00:53:07.723Z,972.12
2017-04-12T00:54:16.732Z,972.13
2017-04-12T00:55:26.405Z,972.12
2017-04-12T00:56:35.472Z,972.14
2017-04-12T00:57:44.842Z,972.1
2017-04-12T00:58:54.214Z,972.13
2017-04-12T01:00:03.268Z,972.12
2017-04-12T01:01:12.266Z,972.15
2017-04-12T01:02:21.057Z,972.17
2017-04-12T01:03:29.830Z,972.18
2017-04-12T01:04:38.894Z,972.23
2017-04-12T01:05:47.923Z,972.22
2017-04-12T01:06:56.949Z,972.22
2017-04-12T01:08:06.322Z,972.23
2017-04-12T01:09:15.390Z,972.22
2017-04-12T01:10:24.744Z,972.17
2017-04-12T01:11:33.463Z,972.19
2017-04-12T01:12:42.228Z,972.18
2017-04-12T01:13:51.598Z,972.16
2017-04-12T01:15:00.673Z,972.13
2017-04-12T01:16:10.035Z,972.12
2017-04-12T01:17:18.733Z,972.1
2017-04-12T01:18:27.798Z,972.13
2017-04-12T01:19:37.159Z,972.13
2017-04-12T01:20:46.173Z,972.14
2017-04-12T01:21:55.237Z,972.14
2017-04-12T01:23:03.998Z,972.13
2017-04-12T01:24:13.074Z,972.05
2017-04-12T01:25:22.134Z,972.02
2017-04-12T01:26:30.872Z,971.99
2017-04-12T01:27:39.933Z,971.94
2017-04-12T01:28:48.961Z,971.88
2017-04-12T01:29:58.026Z,971.78
2017-04-12T01:31:06.793Z,971.78
2017-04-12T01:32:15.575Z,971.74
2017-04-12T01:33:24.328Z,971.72
2017-04-12T01:34:33.045Z,971.66
2017-04-12T01:35:42.014Z,971.63
2017-04-12T01:36:50.774Z,971.63
2017-04-12T01:37:59.528Z,971.6
2017-04-12T01:39:08.245Z,971.58
2017-04-12T01:40:17.611Z,971.54
2017-04-12T01:41:26.395Z,971.57
2017-04-12T01:42:35.459Z,971.6
2017-04-12T01:43:44.225Z,971.63
2017-04-12T01:44:53.299Z,971.61
2017-04-12T01:46:02.072Z,971.62
2017-04-12T01:47:11.336Z,971.65
2017-04-12T01:48:20.412Z,971.58
2017-04-12T01:49:29.181Z,971.53
2017-04-12T01:50:38.554Z,971.58
2017-04-12T01:51:47.321Z,971.47
2017-04-12T01:52:56.078Z,971.5
2017-04-12T01:54:05.167Z,971.5
2017-04-12T01:55:14.242Z,971.49
2017-04-12T01:56:23.005Z,971.46
2017-04-12T01:57:32.067Z,971.44
2017-04-12T01:58:40.826Z,971.45
2017-04-12T01:59:49.579Z,971.42
2017-04-12T02:00:58.344Z,971.41
2017-04-12T02:02:07.421Z,971.42
2017-04-12T02:03:16.480Z,971.41
2017-04-12T02:04:25.245Z,971.39
2017-04-12T02:05:34.299Z,971.36
2017-04-12T02:06:43.014Z,971.38
2017-04-12T02:07:52.084Z,971.42
2017-04-12T02:09:01.147Z,971.34
2017-04-12T02:10:10.199Z,971.34
2017-04-12T02:11:18.945Z,971.28
2017-04-12T02:12:27.959Z,971.24
2017-04-12T02:13:36.728Z,971.19
2017-04-12T02:14:45.494Z,971.13
2017-04-12T02:15:54.299Z,971.1
2017-04-12T02:17:03.058Z,971.06
2017-04-12T02:18:11.824Z,971.08
2017-04-12T02:19:20.584Z,971.09
2017-04-12T02:20:29.637Z,971.05
2017-04-12T02:21:38.349Z,971.05
2017-04-12T02:22:47.416Z,971.01
2017-04-12T02:23:56.481Z,971.1
2017-04-12T02:25:05.857Z,971.07
2017-04-12T02:26:14.880Z,971.03
2017-04-12T02:27:23.645Z,971.06
2017-04-12T02:28:32.423Z,971.03
2017-04-12T02:29:41.778Z,971.04
2017-04-12T02:30:50.555Z,971.01
2017-04-12T02:32:00.245Z,971.02
2017-04-12T02:33:09.260Z,970.99
2017-04-12T02:34:18.564Z,970.96
2017-04-12T02:35:28.179Z,970.9
2017-04-12T02:36:37.229Z,970.9
2017-04-12T02:37:45.949Z,970.93
2017-04-12T02:38:55.005Z,970.88
2017-04-12T02:40:04.014Z,970.91
2017-04-12T02:41:13.102Z,970.9
2017-04-12T02:42:21.862Z,970.94
2017-04-12T02:43:30.929Z,970.95
2017-04-12T02:44:39.995Z,970.96
2017-04-12T02:45:49.059Z,970.94
2017-04-12T02:46:57.811Z,970.92
2017-04-12T02:48:07.023Z,970.95
2017-04-12T02:49:16.039Z,970.91
2017-04-12T02:50:25.084Z,970.88
2017-04-12T02:51:33.791Z,970.89
2017-04-12T02:52:42.845Z,970.87
2017-04-12T02:53:51.612Z,970.88
2017-04-12T02:55:00.374Z,970.87
2017-04-12T02:56:09.130Z,970.81
2017-04-12T02:57:18.202Z,970.74
2017-04-12T02:58:27.578Z,970.73
2017-04-12T02:59:36.637Z,970.65
2017-04-12T03:00:45.937Z,970.6
2017-04-12T03:01:54.953Z,970.57
2017-04-12T03:03:03.717Z,970.52
2017-04-12T03:04:13.094Z,970.5
2017-04-12T03:05:22.776Z,970.49
2017-04-12T03:06:31.548Z,970.44
2017-04-12T03:07:40.325Z,970.44
2017-04-12T03:08:49.707Z,970.46
2017-04-12T03:09:58.776Z,970.45
2017-04-12T03:11:07.851Z,970.45
2017-04-12T03:12:16.620Z,970.48
2017-04-12T03:13:25.380Z,970.48
2017-04-12T03:14:34.763Z,970.47
2017-04-12T03:15:44.188Z,970.44
2017-04-12T03:16:52.963Z,970.42
2017-04-12T03:18:02.040Z,970.44
2017-04-12T03:19:11.114Z,970.43
2017-04-12T03:20:20.192Z,970.44
2017-04-12T03:21:29.566Z,970.3
2017-04-12T03:22:38.332Z,970.29
2017-04-12T03:23:47.700Z,970.31
2017-04-12T03:24:56.782Z,970.31
2017-04-12T03:26:06.760Z,970.33
2017-04-12T03:27:15.836Z,970.3
2017-04-12T03:28:24.598Z,970.28
2017-04-12T03:29:33.922Z,970.29
2017-04-12T03:30:43.286Z,970.27
2017-04-12T03:31:52.005Z,970.23
2017-04-12T03:33:01.083Z,970.22
2017-04-12T03:34:10.197Z,970.21
2017-04-12T03:35:19.272Z,970.19
2017-04-12T03:36:28.046Z,970.22
2017-04-12T03:37:36.781Z,970.23
2017-04-12T03:38:45.559Z,970.22
2017-04-12T03:39:54.329Z,970.22
2017-04-12T03:41:03.105Z,970.21
2017-04-12T03:42:11.881Z,970.17
2017-04-12T03:43:21.255Z,970.18
2017-04-12T03:44:30.623Z,970.13
2017-04-12T03:45:39.340Z,970.13
2017-04-12T03:46:48.146Z,970.16
2017-04-12T03:47:57.505Z,970.18
2017-04-12T03:49:07.130Z,970.13
2017-04-12T03:50:16.206Z,970.16
2017-04-12T03:51:25.261Z,970.17
2017-04-12T03:52:34.279Z,970.08
2017-04-12T03:53:43.367Z,970.11
2017-04-12T03:54:53.362Z,970.12
2017-04-12T03:56:02.739Z,970.1
2017-04-12T03:57:12.121Z,970.11
2017-04-12T03:58:21.750Z,970.08
2017-04-12T03:59:31.443Z,970.12
2017-04-12T04:00:41.140Z,970.01
2017-04-12T04:01:50.216Z,970
2017-04-12T04:02:59.287Z,969.98
2017-04-12T04:04:09.125Z,970
2017-04-12T04:05:18.502Z,970.02
2017-04-12T04:06:27.222Z,969.97
2017-04-12T04:07:36.299Z,969.99
2017-04-12T04:08:45.368Z,969.97
2017-04-12T04:09:54.138Z,969.96
2017-04-12T04:11:02.890Z,970.01
2017-04-12T04:12:11.598Z,969.97
2017-04-12T04:13:20.991Z,969.96
2017-04-12T04:14:29.756Z,970
2017-04-12T04:15:38.526Z,969.98
2017-04-12T04:16:47.293Z,969.96
2017-04-12T04:17:56.370Z,969.97
2017-04-12T04:19:05.129Z,969.98
2017-04-12T04:20:13.892Z,969.97
2017-04-12T04:21:22.966Z,970.03
2017-04-12T04:22:31.725Z,970
2017-04-12T04:23:41.107Z,969.98
2017-04-12T04:24:50.188Z,970.04
2017-04-12T04:25:59.272Z,970.04
2017-04-12T04:27:08.038Z,970.07
2017-04-12T04:28:16.805Z,970.08
2017-04-12T04:29:26.168Z,970.05
2017-04-12T04:30:35.192Z,970.04
2017-04-12T04:31:43.959Z,970.06
2017-04-12T04:32:52.736Z,970.07
2017-04-12T04:34:02.098Z,970.06
2017-04-12T04:35:11.115Z,970.02
2017-04-12T04:36:20.191Z,969.98
2017-04-12T04:37:29.264Z,969.94
2017-04-12T04:38:38.075Z,969.9
2017-04-12T04:39:46.822Z,969.89
2017-04-12T04:40:55.878Z,969.88
2017-04-12T04:42:04.887Z,969.83
2017-04-12T04:43:13.900Z,969.82
2017-04-12T04:44:23.582Z,969.81
2017-04-12T04:45:32.956Z,969.85
2017-04-12T04:46:41.728Z,969.91
2017-04-12T04:47:51.109Z,969.95
2017-04-12T04:49:00.507Z,969.98
2017-04-12T04:50:09.565Z,969.97
2017-04-12T04:51:18.598Z,970.01
2017-04-12T04:52:27.921Z,970.08
2017-04-12T04:53:37.280Z,970.03
2017-04-12T04:54:45.998Z,969.89
2017-04-12T04:55:54.772Z,969.85
2017-04-12T04:57:03.532Z,969.82
2017-04-12T04:58:12.300Z,969.84
2017-04-12T04:59:21.353Z,969.82
2017-04-12T05:00:30.426Z,969.84
2017-04-12T05:01:39.507Z,969.85
2017-04-12T05:02:48.279Z,969.85
2017-04-12T05:03:57.353Z,969.86
2017-04-12T05:05:06.121Z,969.84
2017-04-12T05:06:14.893Z,969.82
2017-04-12T05:07:23.662Z,969.81
2017-04-12T05:08:32.434Z,969.82
2017-04-12T05:09:41.209Z,969.81
2017-04-12T05:10:49.976Z,969.86
2017-04-12T05:11:59.029Z,969.85
2017-04-12T05:13:07.761Z,969.82
2017-04-12T05:14:16.502Z,969.85
2017-04-12T05:15:25.531Z,969.82
2017-04-12T05:16:34.597Z,969.84
2017-04-12T05:17:43.345Z,969.8
2017-04-12T05:18:52.047Z,969.83
2017-04-12T05:20:00.816Z,969.81
2017-04-12T05:21:09.887Z,969.76
2017-04-12T05:22:18.960Z,969.74
2017-04-12T05:23:27.727Z,969.68
2017-04-12T05:24:36.797Z,969.65
2017-04-12T05:25:45.861Z,969.66
2017-04-12T05:26:54.877Z,969.58
2017-04-12T05:28:03.968Z,969.59
2017-04-12T05:29:13.651Z,969.59
2017-04-12T05:30:22.726Z,969.58
2017-04-12T05:31:31.485Z,969.61
2017-04-12T05:32:40.203Z,969.6
2017-04-12T05:33:49.281Z,969.53
2017-04-12T05:34:58.952Z,969.53
2017-04-12T05:36:07.684Z,969.55
2017-04-12T05:37:16.752Z,969.57
2017-04-12T05:38:25.524Z,969.53
2017-04-12T05:39:34.296Z,969.51
2017-04-12T05:40:43.361Z,969.52
2017-04-12T05:41:52.744Z,969.51
2017-04-12T05:43:01.821Z,969.4
2017-04-12T05:44:10.896Z,969.48
2017-04-12T05:45:19.969Z,969.45
2017-04-12T05:46:28.726Z,969.51
2017-04-12T05:47:38.058Z,969.47
2017-04-12T05:48:47.739Z,969.48
2017-04-12T05:49:56.501Z,969.41
2017-04-12T05:51:05.270Z,969.42
2017-04-12T05:52:14.027Z,969.44
2017-04-12T05:53:22.792Z,969.46
2017-04-12T05:54:32.237Z,969.38
2017-04-12T05:55:41.003Z,969.41
2017-04-12T05:56:49.778Z,969.44
2017-04-12T05:57:58.850Z,969.48
2017-04-12T05:59:07.569Z,969.47
2017-04-12T06:00:17.457Z,969.48
2017-04-12T06:01:26.221Z,969.52
2017-04-12T06:02:34.983Z,969.53
2017-04-12T06:03:43.740Z,969.44
2017-04-12T06:04:52.460Z,969.48
2017-04-12T06:06:01.224Z,969.49
2017-04-12T06:07:09.988Z,969.5
2017-04-12T06:08:18.750Z,969.53
2017-04-12T06:09:28.131Z,969.5
2017-04-12T06:10:36.876Z,969.5
2017-04-12T06:11:45.961Z,969.51
2017-04-12T06:12:54.733Z,969.44
2017-04-12T06:14:04.418Z,969.45
2017-04-12T06:15:13.502Z,969.42
2017-04-12T06:16:22.278Z,969.42
2017-04-12T06:17:31.044Z,969.41
2017-04-12T06:18:40.409Z,969.39
2017-04-12T06:19:49.490Z,969.32
2017-04-12T06:20:59.173Z,969.34
2017-04-12T06:22:08.251Z,969.33
2017-04-12T06:23:17.016Z,969.35
2017-04-12T06:24:26.389Z,969.39
2017-04-12T06:25:35.464Z,969.36
2017-04-12T06:26:44.542Z,969.3
2017-04-12T06:27:53.290Z,969.33
2017-04-12T06:29:02.010Z,969.37
2017-04-12T06:30:10.784Z,969.34
2017-04-12T06:31:19.851Z,969.3
2017-04-12T06:32:28.617Z,969.32
2017-04-12T06:33:37.392Z,969.32
2017-04-12T06:34:47.073Z,969.31
2017-04-12T06:35:56.108Z,969.31
2017-04-12T06:37:05.184Z,969.3
2017-04-12T06:38:14.201Z,969.26
2017-04-12T06:39:23.520Z,969.23
2017-04-12T06:40:32.281Z,969.23
2017-04-12T06:41:41.364Z,969.23
2017-04-12T06:42:50.777Z,969.17
2017-04-12T06:44:00.472Z,969.19
2017-04-12T06:45:09.244Z,969.16
2017-04-12T06:46:18.314Z,969.15
2017-04-12T06:47:27.082Z,969.15
2017-04-12T06:48:36.184Z,969.19
2017-04-12T06:49:45.879Z,969.18
2017-04-12T06:50:54.945Z,969.26
2017-04-12T06:52:04.022Z,969.3
2017-04-12T06:53:13.405Z,969.23
2017-04-12T06:54:22.103Z,969.24
2017-04-12T06:55:30.820Z,969.29
2017-04-12T06:56:39.898Z,969.28
2017-04-12T06:57:48.673Z,969.29
2017-04-12T06:58:57.755Z,969.27
2017-04-12T07:00:06.829Z,969.32
2017-04-12T07:01:15.912Z,969.25
2017-04-12T07:02:24.681Z,969.28
2017-04-12T07:03:33.747Z,969.26
2017-04-12T07:04:43.074Z,969.23
2017-04-12T07:05:52.467Z,969.16
2017-04-12T07:07:01.226Z,969.18
2017-04-12T07:08:10.254Z,969.03
2017-04-12T07:09:19.071Z,969.02
2017-04-12T07:10:28.150Z,968.98
2017-04-12T07:11:36.919Z,969
2017-04-12T07:12:45.695Z,969
2017-04-12T07:13:54.448Z,969.02
2017-04-12T07:15:03.151Z,968.97
2017-04-12T07:16:11.929Z,969.03
2017-04-12T07:17:20.703Z,968.96
2017-04-12T07:18:29.477Z,968.97
2017-04-12T07:19:38.854Z,968.89
2017-04-12T07:20:48.229Z,968.91
2017-04-12T07:21:57.001Z,968.87
2017-04-12T07:23:06.380Z,968.89
2017-04-12T07:24:15.143Z,968.89
2017-04-12T07:25:23.860Z,968.93
2017-04-12T07:26:32.921Z,968.91
2017-04-12T07:27:41.690Z,968.85
2017-04-12T07:28:50.762Z,968.91
2017-04-12T07:29:59.536Z,968.93
2017-04-12T07:31:08.618Z,968.89
2017-04-12T07:32:17.997Z,968.87
2017-04-12T07:33:26.766Z,968.88
2017-04-12T07:34:36.488Z,968.88
2017-04-12T07:35:45.200Z,968.88
2017-04-12T07:36:53.961Z,968.87
2017-04-12T07:38:02.673Z,968.83
2017-04-12T07:39:11.445Z,968.71
2017-04-12T07:40:20.219Z,968.81
2017-04-12T07:41:28.994Z,968.81
2017-04-12T07:42:37.751Z,968.9
2017-04-12T07:43:47.074Z,968.86
2017-04-12T07:44:56.645Z,968.76
2017-04-12T07:46:05.692Z,968.82
2017-04-12T07:47:14.468Z,968.72
2017-04-12T07:48:23.540Z,968.68
2017-04-12T07:49:32.293Z,968.72
2017-04-12T07:50:41.013Z,968.65
2017-04-12T07:51:50.080Z,968.66
2017-04-12T07:52:59.151Z,968.67
2017-04-12T07:54:07.930Z,968.63
2017-04-12T07:55:16.691Z,968.58
2017-04-12T07:56:25.458Z,968.61
2017-04-12T07:57:34.726Z,968.57
2017-04-12T07:58:43.499Z,968.53
2017-04-12T07:59:52.886Z,968.56
2017-04-12T08:01:01.964Z,968.49
2017-04-12T08:02:10.678Z,968.49
2017-04-12T08:03:19.756Z,968.54
2017-04-12T08:04:28.514Z,968.55
2017-04-12T08:05:37.298Z,968.49
2017-04-12T08:06:46.055Z,968.52
2017-04-12T08:07:55.281Z,968.57
2017-04-12T08:09:04.050Z,968.57
2017-04-12T08:10:13.150Z,968.61
2017-04-12T08:11:21.857Z,968.57
2017-04-12T08:12:31.473Z,968.57
2017-04-12T08:13:40.248Z,968.56
2017-04-12T08:14:49.043Z,968.55
2017-04-12T08:15:57.746Z,968.67
2017-04-12T08:17:06.493Z,968.67
2017-04-12T08:18:15.256Z,968.62
2017-04-12T08:19:24.371Z,968.62
2017-04-12T08:20:33.145Z,968.62
2017-04-12T08:21:41.905Z,968.62
2017-04-12T08:22:50.917Z,968.65
2017-04-12T08:23:59.992Z,968.5
2017-04-12T08:25:08.763Z,968.51
2017-04-12T08:26:17.840Z,968.51
2017-04-12T08:27:26.924Z,968.48
2017-04-12T08:28:35.682Z,968.46
2017-04-12T08:29:44.448Z,968.46
2017-04-12T08:30:53.530Z,968.42
2017-04-12T08:32:02.308Z,968.46
2017-04-12T08:33:11.061Z,968.49
2017-04-12T08:34:20.116Z,968.46
2017-04-12T08:35:28.888Z,968.48
2017-04-12T08:36:37.654Z,968.47
2017-04-12T08:37:46.431Z,968.51
2017-04-12T08:38:55.508Z,968.5
2017-04-12T08:40:04.588Z,968.52
2017-04-12T08:41:13.670Z,968.52
2017-04-12T08:42:22.448Z,968.49
2017-04-12T08:43:31.216Z,968.52
2017-04-12T08:44:40.192Z,968.51
2017-04-12T08:45:48.976Z,968.52
2017-04-12T08:46:58.056Z,968.51
2017-04-12T08:48:06.827Z,968.45
2017-04-12T08:49:15.591Z,968.47
2017-04-12T08:50:24.960Z,968.52
2017-04-12T08:51:33.670Z,968.54
2017-04-12T08:52:42.746Z,968.52
2017-04-12T08:53:51.814Z,968.49
2017-04-12T08:55:01.081Z,968.47
2017-04-12T08:56:09.796Z,968.46
2017-04-12T08:57:18.883Z,968.48
2017-04-12T08:58:27.662Z,968.46
2017-04-12T08:59:36.421Z,968.46
2017-04-12T09:00:45.139Z,968.44
2017-04-12T09:01:54.252Z,968.44
2017-04-12T09:03:03.013Z,968.42
2017-04-12T09:04:12.333Z,968.38
2017-04-12T09:05:21.068Z,968.34
2017-04-12T09:06:29.842Z,968.34
2017-04-12T09:07:38.606Z,968.27
2017-04-12T09:08:47.371Z,968.24
2017-04-12T09:09:56.132Z,968.27
2017-04-12T09:11:05.105Z,968.26
2017-04-12T09:12:13.877Z,968.3
2017-04-12T09:13:22.642Z,968.23
2017-04-12T09:14:31.415Z,968.22
2017-04-12T09:15:40.390Z,968.23
2017-04-12T09:16:49.164Z,968.21
2017-04-12T09:17:58.245Z,968.23
2017-04-12T09:19:07.019Z,968.26
2017-04-12T09:20:16.130Z,968.21
2017-04-12T09:21:25.755Z,968.22
2017-04-12T09:22:34.525Z,968.25
2017-04-12T09:23:43.287Z,968.27
2017-04-12T09:24:52.668Z,968.29
2017-04-12T09:26:02.343Z,968.27
2017-04-12T09:27:11.068Z,968.21
2017-04-12T09:28:20.655Z,968.21
2017-04-12T09:29:29.679Z,968.21
2017-04-12T09:30:38.454Z,968.21
2017-04-12T09:31:47.228Z,968.13
2017-04-12T09:32:55.999Z,968.08
2017-04-12T09:34:04.770Z,968.15
2017-04-12T09:35:13.539Z,968.06
2017-04-12T09:36:22.318Z,968.09
2017-04-12T09:37:31.082Z,968.12
2017-04-12T09:38:40.162Z,968.03
2017-04-12T09:39:49.248Z,968.01
2017-04-12T09:40:58.014Z,967.92
2017-04-12T09:42:06.781Z,967.96
2017-04-12T09:43:15.856Z,967.99
2017-04-12T09:44:24.630Z,967.99
2017-04-12T09:45:33.415Z,968.05
2017-04-12T09:46:42.178Z,968.01
2017-04-12T09:47:51.204Z,968.01
2017-04-12T09:49:00.281Z,968.01
2017-04-12T09:50:09.046Z,967.99
2017-04-12T09:51:18.124Z,967.94
2017-04-12T09:52:26.883Z,968.05
2017-04-12T09:53:35.586Z,967.97
2017-04-12T09:54:44.294Z,967.97
2017-04-12T09:55:53.009Z,968
2017-04-12T09:57:02.287Z,967.97
2017-04-12T09:58:11.060Z,968.02
2017-04-12T09:59:19.826Z,968
2017-04-12T10:00:28.598Z,967.93
2017-04-12T10:01:37.371Z,967.9
2017-04-12T10:02:46.147Z,967.86
2017-04-12T10:03:55.840Z,967.89
2017-04-12T10:05:04.930Z,967.9
2017-04-12T10:06:13.991Z,967.93
2017-04-12T10:07:23.632Z,967.95
2017-04-12T10:08:32.694Z,968.01
2017-04-12T10:09:41.409Z,967.93
2017-04-12T10:10:50.162Z,967.93
2017-04-12T10:11:58.884Z,967.92
2017-04-12T10:13:07.653Z,967.95
2017-04-12T10:14:16.707Z,967.88
2017-04-12T10:15:25.478Z,967.86
2017-04-12T10:16:34.246Z,967.83
2017-04-12T10:17:43.316Z,967.86
2017-04-12T10:18:52.069Z,967.87
2017-04-12T10:20:01.089Z,967.82
2017-04-12T10:21:10.147Z,967.79
2017-04-12T10:22:18.914Z,967.81
2017-04-12T10:23:27.835Z,967.81
2017-04-12T10:24:36.599Z,967.74
2017-04-12T10:25:45.369Z,967.76
2017-04-12T10:26:54.127Z,967.72
2017-04-12T10:28:02.832Z,967.67
2017-04-12T10:29:11.578Z,967.74
2017-04-12T10:30:20.287Z,967.66
2017-04-12T10:31:29.062Z,967.57
2017-04-12T10:32:37.828Z,967.61
2017-04-12T10:33:46.908Z,967.61
2017-04-12T10:34:55.660Z,967.66
2017-04-12T10:36:04.367Z,967.62
2017-04-12T10:37:13.391Z,967.57
2017-04-12T10:38:22.224Z,967.63
2017-04-12T10:39:30.990Z,967.57
2017-04-12T10:40:39.703Z,967.6
2017-04-12T10:41:48.479Z,967.59
2017-04-12T10:42:57.249Z,967.57
2017-04-12T10:44:06.318Z,967.62
2017-04-12T10:45:15.890Z,967.6
2017-04-12T10:46:24.604Z,967.58
2017-04-12T10:47:33.370Z,967.61
2017-04-12T10:48:42.326Z,967.52
2017-04-12T10:49:51.088Z,967.46
2017-04-12T10:50:59.798Z,967.53
2017-04-12T10:52:08.880Z,967.49
2017-04-12T10:53:17.932Z,967.55
2017-04-12T10:54:26.637Z,967.48
2017-04-12T10:55:35.410Z,967.48
2017-04-12T10:56:44.175Z,967.52
2017-04-12T10:57:52.948Z,967.47
2017-04-12T10:59:02.015Z,967.42
2017-04-12T11:00:10.790Z,967.44
2017-04-12T11:01:19.558Z,967.45
2017-04-12T11:02:28.337Z,967.4
2017-04-12T11:03:37.115Z,967.37
2017-04-12T11:04:46.479Z,967.36
2017-04-12T11:05:55.564Z,967.37
2017-04-12T11:07:04.336Z,967.35
2017-04-12T11:08:13.111Z,967.38
2017-04-12T11:09:22.082Z,967.33
2017-04-12T11:10:31.150Z,967.29
2017-04-12T11:11:40.233Z,967.36
2017-04-12T11:12:48.991Z,967.3
2017-04-12T11:13:57.757Z,967.32
2017-04-12T11:15:06.517Z,967.32
2017-04-12T11:16:15.832Z,967.28
2017-04-12T11:17:24.548Z,967.32
2017-04-12T11:18:33.612Z,967.29
2017-04-12T11:19:42.828Z,967.23
2017-04-12T11:20:51.890Z,967.26
2017-04-12T11:22:00.639Z,967.21
2017-04-12T11:23:09.413Z,967.18
2017-04-12T11:24:18.478Z,967.21
2017-04-12T11:25:27.285Z,967.11
2017-04-12T11:26:36.079Z,967.14
2017-04-12T11:27:45.167Z,967.1
2017-04-12T11:28:54.233Z,967.06
2017-04-12T11:30:03.311Z,967.08
2017-04-12T11:31:12.086Z,967.09
2017-04-12T11:32:20.875Z,967.1
2017-04-12T11:33:29.643Z,967.09
2017-04-12T11:34:39.032Z,967.06
2017-04-12T11:35:47.799Z,967.03
2017-04-12T11:36:56.567Z,967.05
2017-04-12T11:38:05.286Z,967.04
2017-04-12T11:39:14.054Z,966.95
2017-04-12T11:40:22.827Z,966.91
2017-04-12T11:41:31.589Z,966.91
2017-04-12T11:42:40.344Z,966.9
2017-04-12T11:43:49.058Z,966.82
2017-04-12T11:44:57.825Z,966.85
2017-04-12T11:46:06.870Z,966.82
2017-04-12T11:47:15.901Z,966.83
2017-04-12T11:48:24.974Z,966.83
2017-04-12T11:49:33.742Z,966.85
2017-04-12T11:50:42.689Z,966.86
2017-04-12T11:51:51.406Z,966.82
2017-04-12T11:53:00.174Z,966.82
2017-04-12T11:54:09.544Z,966.83
2017-04-12T11:55:18.896Z,966.87
2017-04-12T11:56:27.657Z,966.81
2017-04-12T11:57:36.367Z,966.82
2017-04-12T11:58:45.074Z,966.78
2017-04-12T11:59:54.151Z,966.77
2017-04-12T12:01:02.942Z,966.78
2017-04-12T12:02:12.062Z,966.75
2017-04-12T12:03:21.441Z,966.72
2017-04-12T12:04:30.210Z,966.81
2017-04-12T12:05:38.982Z,966.75
2017-04-12T12:06:47.749Z,966.78
2017-04-12T12:07:56.831Z,966.69
2017-04-12T12:09:05.576Z,966.67
2017-04-12T12:10:14.343Z,966.63
2017-04-12T12:11:23.637Z,966.56
2017-04-12T12:12:32.401Z,966.59
2017-04-12T12:13:41.419Z,966.61
2017-04-12T12:14:50.193Z,966.67
2017-04-12T12:15:58.973Z,966.68
2017-04-12T12:17:07.753Z,966.7
2017-04-12T12:18:16.832Z,966.69
2017-04-12T12:19:25.910Z,966.67
2017-04-12T12:20:34.690Z,966.69
2017-04-12T12:21:43.792Z,966.73
2017-04-12T12:22:53.160Z,966.7
2017-04-12T12:24:01.939Z,966.67
2017-04-12T12:25:10.714Z,966.69
2017-04-12T12:26:19.478Z,966.65
2017-04-12T12:27:28.226Z,966.6
2017-04-12T12:28:37.001Z,966.61
2017-04-12T12:29:45.764Z,966.56
2017-04-12T12:30:54.514Z,966.56
2017-04-12T12:32:03.230Z,966.59
2017-04-12T12:33:12.297Z,966.59
2017-04-12T12:34:21.368Z,966.58
2017-04-12T12:35:30.142Z,966.62
2017-04-12T12:36:38.913Z,966.56
2017-04-12T12:37:47.688Z,966.5
2017-04-12T12:38:56.493Z,966.52
2017-04-12T12:40:05.268Z,966.44
2017-04-12T12:41:14.282Z,966.5
2017-04-12T12:42:23.361Z,966.47
2017-04-12T12:43:32.127Z,966.45
2017-04-12T12:44:40.898Z,966.44
2017-04-12T12:45:49.662Z,966.44
2017-04-12T12:46:58.425Z,966.43
2017-04-12T12:48:07.176Z,966.43
2017-04-12T12:49:15.945Z,966.35
2017-04-12T12:50:25.027Z,966.39
2017-04-12T12:51:33.826Z,966.35
2017-04-12T12:52:42.911Z,966.36
2017-04-12T12:53:51.995Z,966.34
2017-04-12T12:55:01.072Z,966.37
2017-04-12T12:56:09.787Z,966.37
2017-04-12T12:57:19.120Z,966.39
2017-04-12T12:58:28.175Z,966.32
2017-04-12T12:59:36.889Z,966.33
2017-04-12T13:00:45.651Z,966.34
2017-04-12T13:01:54.433Z,966.33
2017-04-12T13:03:03.203Z,966.37
2017-04-12T13:04:12.881Z,966.3
2017-04-12T13:05:21.685Z,966.36
2017-04-12T13:06:30.448Z,966.26
2017-04-12T13:07:39.159Z,966.26
2017-04-12T13:08:47.861Z,966.2
2017-04-12T13:09:56.570Z,966.25
2017-04-12T13:11:05.347Z,966.17
2017-04-12T13:12:14.123Z,966.14
2017-04-12T13:13:22.885Z,966.15
2017-04-12T13:14:31.580Z,966.18
2017-04-12T13:15:40.301Z,966.09
2017-04-12T13:16:49.071Z,966.09
2017-04-12T13:17:57.846Z,966.18
2017-04-12T13:19:06.609Z,966.15
2017-04-12T13:20:15.380Z,966.12
2017-04-12T13:21:24.461Z,966.13
2017-04-12T13:22:33.231Z,966.09
2017-04-12T13:23:42.011Z,966.12
2017-04-12T13:24:50.783Z,966.04
2017-04-12T13:25:59.561Z,966.09
2017-04-12T13:27:08.324Z,966.07
2017-04-12T13:28:17.041Z,966.06
2017-04-12T13:29:25.849Z,966.08
2017-04-12T13:30:34.556Z,966.09
2017-04-12T13:31:43.619Z,966.13
2017-04-12T13:32:52.631Z,966
2017-04-12T13:34:01.386Z,965.97
2017-04-12T13:35:10.403Z,965.98
2017-04-12T13:36:19.378Z,966
2017-04-12T13:37:28.457Z,965.96
2017-04-12T13:38:37.266Z,966.02
2017-04-12T13:39:46.394Z,966.09
2017-04-12T13:40:55.134Z,965.99
2017-04-12T13:42:03.901Z,966.09
2017-04-12T13:43:12.967Z,965.99
2017-04-12T13:44:21.740Z,965.99
2017-04-12T13:45:30.804Z,966.06
2017-04-12T13:46:39.534Z,965.85
2017-04-12T13:47:48.584Z,965.99
2017-04-12T13:48:57.603Z,965.98
2017-04-12T13:50:06.410Z,966.01
2017-04-12T13:51:15.191Z,965.96
2017-04-12T13:52:23.957Z,965.89
2017-04-12T13:53:33.026Z,965.91
2017-04-12T13:54:41.797Z,965.89
2017-04-12T13:55:50.566Z,965.87
2017-04-12T13:56:59.328Z,965.84
2017-04-12T13:58:08.148Z,965.87
2017-04-12T13:59:17.230Z,965.79
2017-04-12T14:00:26.000Z,965.82
2017-04-12T14:01:34.768Z,965.8
2017-04-12T14:02:43.531Z,965.83
2017-04-12T14:03:52.585Z,965.79
2017-04-12T14:05:01.604Z,965.8
2017-04-12T14:06:10.370Z,965.85
2017-04-12T14:07:20.044Z,965.76
2017-04-12T14:08:28.815Z,965.8
2017-04-12T14:09:38.195Z,965.72
2017-04-12T14:10:46.959Z,965.79
2017-04-12T14:11:55.723Z,965.65
2017-04-12T14:13:04.487Z,965.68
2017-04-12T14:14:13.193Z,965.59
2017-04-12T14:15:21.969Z,965.56
2017-04-12T14:16:31.042Z,965.48
2017-04-12T14:17:40.101Z,965.5
2017-04-12T14:18:48.818Z,965.51
2017-04-12T14:19:57.592Z,965.42
2017-04-12T14:21:06.664Z,965.3
2017-04-12T14:22:15.738Z,965.41
2017-04-12T14:23:24.503Z,965.35